ABP Southampton Marathon, Half Marathon and 10k
Skip Navigation Links
Results
Team Results
Live Leaderboard
Past Results
Race Stats
Smartphone Results
Race Website
22 April 2018
HyperLink
Click your name for detailed results and features
Page 1 of 86 (4280 items)
[1]234567...83848586
Pos
Bib No
Fav
Share
Print
Name
Gun Time
Chip Time
Category
Cat Pos
Gender
Gen Pos
Club
Pace
16083Aiden LENNAN1:13:46.81:13:45.2Top 31Male1 10.7 m/hr
24833Riccardo RUBINI1:16:32.61:16:32.1Top 32Male2 10.3 m/hr
37691Max COSTLEY1:17:07.81:17:07.7Top 33Male3SOUTHAMPTON ATHLETIC CLUB10.2 m/hr
47901Jiri LIPKA1:17:31.31:17:19.2Sen1Male4 10.1 m/hr
53190Yeshwant CHILLAKURU1:18:36.51:18:32.8Sen2Male5HIGHGATE HARRIERS10.0 m/hr
67802Ryan ABBT1:20:23.21:20:19.1Sen3Male6  9.8 m/hr
76836Simone MITCHELL1:20:39.51:20:38.9Top 31Female1WADAC 9.7 m/hr
83236Jozef ZIDEK1:20:41.21:20:40.8Sen4Male7SPORT CLUB POLICE ZILINA 9.7 m/hr
96338Thomas WHARTON1:21:06.21:21:05.9V401Male8ITCHEN SPITFIRES RUNNING CLUB 9.7 m/hr
107555Tim SMALES1:21:37.11:21:36.4Sen5Male9WADAC 9.6 m/hr
117652Kevin WILLSHER1:21:38.31:21:36.3Sen6Male10LORDSHILL ROAD RUNNERS 9.6 m/hr
126398Anthony HERRING1:21:58.71:21:15.2Sen7Male11  9.6 m/hr
134701Patrick CONNORS1:22:24.91:22:21.5Sen8Male12ITCHEN SPITFIRES RUNNING CLUB 9.5 m/hr
143290Archie ALLEN-JONES1:22:40.51:22:39.1Sen9Male13NETLEY ABBEY RUNNERS / EALING SOUTHALL & MIDDLESEX AC 9.5 m/hr
157304Rory HORSEMAN1:22:46.91:22:45.9Sen10Male14HATCH WARREN RUNNERS 9.5 m/hr
167720Alex HARRIS1:23:52.31:23:49.1Sen11Male15DEVIZES RUNNING CLUB 9.4 m/hr
176443Daniel TAYLOR1:24:03.21:24:00.0Sen12Male16HEDGE END RUNNING CLUB 9.4 m/hr
184249Ross MASON1:24:22.11:24:12.4Sen13Male17BATH AC 9.3 m/hr
196662Peter O'DONNELL1:24:27.31:24:25.9V402Male18HEDGE END RUNNING CLUB 9.3 m/hr
207673Kathy BAILEY1:24:33.41:24:32.8Top 32Female2WINCHESTER & DISTRICT AC 9.3 m/hr
216507Marc LUCAS1:24:49.51:24:47.4Sen14Male19TOTTON RUNNING CLUB 9.3 m/hr
227251Annabel GRANGER1:25:02.21:25:01.1Top 33Female3BRISTOL AND WEST AC 9.2 m/hr
235139Thomas CHARNOCK1:25:16.11:25:04.3Sen15Male20  9.2 m/hr
244195Clive RAMSDEN1:25:24.61:25:24.2V403Male21BODMIN ROAD RUNNERS 9.2 m/hr
254583Jonathan READING1:25:37.41:25:26.1Sen16Male22NEW FOREST RUNNERS 9.2 m/hr
263855Rob WILSON1:25:47.71:25:43.9V404Male23DENMEAD STRIDERS 9.2 m/hr
272352Hanna DICKÚR1:25:53.51:25:52.3Sen1Female4ORGRYTE FRIIDROTT 9.2 m/hr
286538Mark CAUSEBROOK1:25:57.41:25:56.5Sen17Male24HARDLEY RUNNERS 9.1 m/hr
294328Patrick HAYNES1:26:04.71:24:13.9Sen18Male25UNIVERSITY OF PORTSMOUTH ATHLETICS CLUB 9.1 m/hr
306739Andrew WHITE1:26:08.61:26:03.2Sen19Male26  9.1 m/hr
316074Nathan RENYARD1:26:26.51:26:23.0V405Male27HARDLEY RUNNERS 9.1 m/hr
325204Ed RICHARDSON1:26:29.51:26:26.4Sen20Male28  9.1 m/hr
334294Alex SMITH1:26:48.21:26:38.6Sen21Male29SLINN ALLSTARS 9.1 m/hr
34193Wayne CLEMENTS1:26:59.91:26:54.2Sen22Male30DATCHET DASHERS 9.0 m/hr
353828Tim RICHARDS1:27:08.41:27:02.5Sen23Male31  9.0 m/hr
3610577Sean Bowen1:27:22.51:27:18.1V501Male32GARDEN CITY RUNNERS 9.0 m/hr
377892Darek KOPRUCKI1:27:56.61:27:43.6Sen24Male33  8.9 m/hr
386780Justin BARTER1:27:56.91:27:50.5Sen25Male34  8.9 m/hr
393591Katie MORGAN1:28:10.71:28:08.4Sen2Female5HAYWARDS HEATH HARRIERS 8.9 m/hr
403099Andrew FREEMAN1:28:27.71:28:15.2V406Male35BROMSGROVE AND REDDITCH AC 8.9 m/hr
415709Samuel BADDELEY1:28:41.91:28:34.1Sen26Male36  8.9 m/hr
427443David NELSON1:28:51.31:28:41.9V407Male37  8.8 m/hr
434181John DIXON1:28:54.51:28:53.3Sen27Male38BRIDGEND RUNNING CLUB 8.8 m/hr
443866Graham BRISTOWE1:28:58.11:28:38.1V408Male39  8.8 m/hr
456960Scott BLAKEWAY1:29:10.31:28:59.2Sen28Male40LITTLEDOWN HARRIERS 8.8 m/hr
465362Andy PILLER1:29:11.01:29:02.5Sen29Male41  8.8 m/hr
477855Ian GOODENROUGH1:29:13.21:27:57.7V409Male42  8.8 m/hr
483491William CARRUTHERS1:29:19.61:29:13.2Sen30Male43  8.8 m/hr
496044Kevin DANIELS1:29:32.51:29:27.3Sen31Male44  8.8 m/hr
506975Simon GRAHAM1:29:38.31:29:31.4Sen32Male45  8.8 m/hr
Page 1 of 86 (4280 items)
[1]234567...83848586
fb